Time;durP1;ratioP1;P1;durP2;ratioP2;P2;SDS_P1;SDS_P2;PMS_P1;PMS_P2;Temp;Humidity;BMP_temperature;BMP_pressure;BME280_temperature;BME280_humidity;BME280_pressure;Samples;Min_cycle;Max_cycle;Signal;HPM_P1;HPM_P2
2020/12/25 00:02:11;;;;;;;;;4.00;4.00;19.70;72.70;;;18.23;54.86;102089.22;5056452;28;8775;-61
2020/12/25 00:04:39;;;;;;;;;4.75;4.75;19.70;72.90;;;18.23;54.17;102091.03;5033398;28;8912;-61
2020/12/25 00:07:06;;;;;;;;;5.00;4.25;19.50;73.10;;;18.17;51.64;102095.03;5043114;28;8810;-61
2020/12/25 00:09:34;;;;;;;;;5.00;4.75;19.40;72.20;;;18.18;52.45;102090.53;5041433;28;8790;-60
2020/12/25 00:12:00;;;;;;;;;4.25;4.00;19.70;73.80;;;18.26;51.42;102088.13;5033686;28;8844;-61
2020/12/25 00:14:27;;;;;;;;;4.25;4.00;19.60;73.00;;;18.28;51.62;102090.69;5033296;28;8778;-61
2020/12/25 00:16:57;;;;;;;;;4.00;4.00;19.70;73.20;;;18.26;52.12;102090.78;5051516;28;8870;-61
2020/12/25 00:19:24;;;;;;;;;5.50;4.50;19.60;75.60;;;18.23;54.14;102083.00;5052340;28;8826;-61
2020/12/25 00:21:51;;;;;;;;;5.25;4.75;19.60;73.90;;;18.23;52.75;102085.69;5038330;28;8801;-61
2020/12/25 00:24:18;;;;;;;;;5.50;5.00;19.60;73.40;;;18.21;54.67;102090.28;5047420;28;8795;-61
2020/12/25 00:26:44;;;;;;;;;5.00;4.75;19.60;73.40;;;18.19;53.53;102087.75;5045490;28;9614;-59
2020/12/25 00:29:11;;;;;;;;;5.50;5.25;19.60;73.10;;;18.18;52.96;102090.53;5038375;28;8801;-61
2020/12/25 00:31:38;;;;;;;;;5.50;5.00;19.60;73.10;;;18.14;52.43;102086.38;5048833;28;8825;-61
2020/12/25 00:34:08;;;;;;;;;6.00;4.00;19.60;73.50;;;18.21;52.45;102085.78;5051186;28;8815;-61
2020/12/25 00:36:40;;;;;;;;;4.75;4.75;19.60;73.70;;;18.26;52.50;102073.91;5047721;28;8827;-61
2020/12/25 21:03:52;;;;;;;;;5.25;5.00;18.40;80.70;;;17.70;57.93;101679.91;5101702;27;13416;-57
2020/12/25 21:06:19;;;;;;;;;4.00;4.00;18.80;81.30;;;17.72;57.23;101653.06;5083001;28;8761;-57
2020/12/25 21:08:46;;;;;;;;;5.25;5.25;18.90;79.70;;;17.75;56.58;101661.66;5086345;28;8869;-57
2020/12/25 21:11:13;;;;;;;;;5.00;5.00;19.10;78.80;;;17.82;57.72;101656.72;5082896;28;8788;-57
2020/12/25 21:13:39;;;;;;;;;5.00;5.00;19.30;79.00;;;17.88;57.53;101677.56;5089519;28;8809;-57
2020/12/25 21:16:06;;;;;;;;;4.50;4.50;19.40;78.30;;;17.90;57.01;101680.97;5084435;28;8772;-57
2020/12/25 21:18:33;;;;;;;;;4.25;4.25;19.50;78.70;;;17.92;57.94;101681.72;5089415;28;8869;-57
2020/12/25 21:21:00;;;;;;;;;4.00;4.00;19.50;78.90;;;17.92;58.63;101678.19;5090109;28;8807;-58
2020/12/25 21:23:27;;;;;;;;;3.75;3.75;19.40;78.30;;;17.91;57.66;101688.03;5089426;28;8934;-57
2020/12/25 21:25:53;;;;;;;;;5.00;5.00;19.30;78.90;;;17.93;55.89;101682.56;5084133;28;8832;-55
2020/12/25 21:28:20;;;;;;;;;4.00;4.00;19.60;77.90;;;17.94;55.80;101666.41;5084031;28;8857;-57
2020/12/25 21:30:47;;;;;;;;;4.00;4.00;19.50;77.50;;;18.02;56.23;101663.09;5086374;28;8862;-57
2020/12/25 21:33:14;;;;;;;;;3.00;3.00;19.50;77.30;;;18.10;56.05;101668.63;5082120;28;8788;-56
2020/12/25 21:35:40;;;;;;;;;5.00;5.00;19.70;77.40;;;18.15;55.84;101668.25;5085174;28;8800;-57
2020/12/25 21:38:07;;;;;;;;;3.00;3.00;19.80;76.70;;;18.16;57.70;101678.78;5085329;28;8800;-56
2020/12/25 21:40:34;;;;;;;;;3.75;3.75;19.70;77.70;;;18.13;59.17;101684.41;5086385;28;8823;-56
2020/12/25 21:43:01;;;;;;;;;3.25;3.25;19.70;77.20;;;18.12;57.77;101689.91;5087662;28;8807;-57
2020/12/25 21:45:28;;;;;;;;;4.00;4.00;19.60;77.10;;;18.10;56.37;101686.50;5085723;28;8873;-58
2020/12/25 21:47:56;;;;;;;;;3.75;3.75;19.70;74.30;;;18.09;57.09;101703.50;5085748;28;8792;-59
2020/12/25 21:50:24;;;;;;;;;4.00;4.00;19.50;75.10;;;18.08;55.82;101710.69;5085250;28;8793;-58
2020/12/25 21:52:51;;;;;;;;;2.75;2.75;19.50;74.90;;;18.05;55.48;101704.75;5085895;28;8815;-57
2020/12/25 21:55:17;;;;;;;;;3.00;3.00;19.50;76.10;;;18.05;53.97;101704.75;5089631;28;8780;-58
2020/12/25 21:57:44;;;;;;;;;4.25;4.25;19.20;74.60;;;18.06;54.75;101690.41;5089123;28;8812;-55
2020/12/25 22:00:11;;;;;;;;;3.50;3.25;19.30;76.10;;;18.07;56.93;101692.13;5087214;28;9517;-55
2020/12/25 22:02:40;;;;;;;;;4.00;4.00;19.50;77.30;;;18.08;55.97;101688.44;5085338;28;8781;-57
2020/12/25 22:05:11;;;;;;;;;3.00;3.00;19.50;77.20;;;18.06;56.66;101690.41;5086479;28;8780;-55
2020/12/25 22:07:38;;;;;;;;;3.50;3.50;19.60;77.90;;;18.07;56.48;101686.75;5080652;28;8826;-56
2020/12/25 22:10:05;;;;;;;;;3.75;3.75;19.30;77.70;;;18.06;56.15;101685.88;5092796;28;8803;-55
2020/12/25 22:12:31;;;;;;;;;3.25;3.25;19.50;77.90;;;18.05;57.76;101684.22;5089722;28;8800;-55
2020/12/25 22:14:58;;;;;;;;;3.75;3.75;19.50;78.80;;;18.10;57.65;101682.00;5075913;28;8785;-58
2020/12/25 22:17:25;;;;;;;;;3.50;3.00;19.50;78.80;;;18.11;60.79;101675.66;5070730;28;8768;-59
2020/12/25 22:19:52;;;;;;;;;4.00;4.00;19.70;80.00;;;18.13;62.48;101694.25;5067986;28;8836;-59
2020/12/25 22:22:18;;;;;;;;;3.00;3.00;19.60;79.90;;;18.14;63.30;101694.16;5068313;28;8978;-58
2020/12/25 22:24:45;;;;;;;;;5.75;5.75;19.60;82.50;;;18.12;62.41;101698.78;5071026;28;8805;-58
2020/12/25 22:27:30;;;;;;;;;2.50;2.50;19.60;83.00;;;18.14;63.30;101709.31;5068245;28;8796;-56
2020/12/25 22:29:57;;;;;;;;;3.50;3.50;19.70;82.50;;;18.15;62.70;101714.56;5072579;28;8779;-57
2020/12/25 22:32:24;;;;;;;;;0.00;0.00;19.60;82.30;;;18.15;61.52;101705.69;5072367;28;8794;-59
2020/12/25 22:34:51;;;;;;;;;4.50;4.50;19.60;82.40;;;18.14;61.99;101693.28;5077354;28;8796;-60
2020/12/25 22:37:18;;;;;;;;;5.00;5.00;19.70;80.80;;;18.15;62.39;101686.97;5082045;28;8824;-60
2020/12/25 22:39:45;;;;;;;;;5.00;4.00;19.60;81.50;;;18.15;61.71;101695.84;5076914;28;8820;-59
2020/12/25 22:42:11;;;;;;;;;3.00;3.00;19.40;80.40;;;18.18;63.59;101694.72;5073489;28;9525;-59
2020/12/25 22:44:38;;;;;;;;;4.00;4.00;19.50;82.10;;;18.17;61.80;101693.03;5071285;28;8776;-59
2020/12/25 22:47:05;;;;;;;;;2.50;2.50;19.80;81.70;;;18.19;63.93;101691.06;5065702;28;10560;-59
2020/12/25 22:49:37;;;;;;;;;4.25;3.75;19.60;84.30;;;18.25;62.19;101692.41;5067416;28;8824;-59
2020/12/25 22:52:05;;;;;;;;;3.50;3.00;19.90;83.10;;;18.28;61.98;101690.31;5069798;28;8865;-59
2020/12/25 22:54:32;;;;;;;;;2.00;2.00;19.80;82.50;;;18.29;65.34;101681.28;5071102;28;8822;-60
2020/12/25 22:57:00;;;;;;;;;4.50;4.00;20.10;84.10;;;18.31;64.35;101670.47;5069596;28;8792;-58
2020/12/25 22:59:27;;;;;;;;;4.75;4.00;20.10;83.90;;;18.33;65.21;101676.53;5067754;28;8812;-59
2020/12/25 23:01:53;;;;;;;;;2.75;2.00;19.90;84.00;;;18.34;62.03;101679.09;5071099;28;8840;-60
2020/12/25 23:04:20;;;;;;;;;4.00;4.00;20.20;84.70;;;18.38;65.25;101696.56;5070469;28;8764;-60
2020/12/25 23:06:47;;;;;;;;;3.00;2.00;20.00;82.90;;;18.38;62.85;101661.78;5068022;28;8799;-59
2020/12/25 23:09:15;;;;;;;;;3.75;2.75;19.80;82.70;;;18.40;63.58;101667.88;5076798;28;8790;-59
2020/12/25 23:11:43;;;;;;;;;6.75;5.00;20.00;84.10;;;18.42;65.32;101681.13;5067030;28;8893;-59
2020/12/25 23:14:10;;;;;;;;;3.00;3.00;19.80;83.20;;;18.43;64.85;101675.63;5069933;28;8771;-60
2020/12/25 23:16:37;;;;;;;;;3.00;3.00;20.00;84.70;;;18.44;65.05;101669.31;5076273;28;8793;-60
2020/12/25 23:19:05;;;;;;;;;4.75;4.75;19.90;83.20;;;18.44;64.21;101673.78;5072174;28;8806;-60
2020/12/25 23:21:32;;;;;;;;;3.00;2.25;19.90;83.30;;;18.44;64.47;101665.75;5075682;28;8812;-59
2020/12/25 23:23:59;;;;;;;;;2.50;2.50;20.00;84.20;;;18.43;63.97;101667.59;5067736;28;8861;-58
2020/12/25 23:26:31;;;;;;;;;7.00;4.50;19.90;84.90;;;18.43;64.84;101656.91;5067266;28;8887;-58
2020/12/25 23:28:59;;;;;;;;;4.25;3.75;19.90;85.40;;;18.42;62.91;101660.56;5063443;28;8775;-56
2020/12/25 23:31:27;;;;;;;;;4.75;4.50;19.80;84.10;;;18.41;63.09;101656.16;5066909;28;8846;-59
2020/12/25 23:33:54;;;;;;;;;2.00;2.00;19.80;83.10;;;18.40;63.05;101659.00;5067941;28;8830;-59
2020/12/25 23:36:24;;;;;;;;;5.25;3.50;20.00;82.30;;;18.39;63.54;101671.53;5066721;28;8827;-57
2020/12/25 23:38:52;;;;;;;;;4.75;4.25;19.70;83.60;;;18.40;65.23;101664.34;5064195;28;8815;-58
2020/12/25 23:41:21;;;;;;;;;3.75;3.25;19.80;83.60;;;18.40;65.78;101657.16;5062119;28;8872;-59
2020/12/25 23:43:49;;;;;;;;;3.75;3.25;19.60;84.30;;;18.37;64.16;101652.09;5061110;28;8838;-56
2020/12/25 23:46:17;;;;;;;;;2.50;2.50;20.00;83.40;;;18.38;64.62;101648.41;5070713;28;8810;-59
2020/12/25 23:48:45;;;;;;;;;3.75;2.75;19.60;84.00;;;18.35;62.96;101654.03;5074496;28;8802;-58
2020/12/25 23:51:12;;;;;;;;;3.00;3.00;19.70;84.10;;;18.39;61.02;101660.84;5068672;28;8831;-59
2020/12/25 23:53:40;;;;;;;;;5.00;4.00;19.80;83.20;;;18.48;61.02;101653.84;5071560;28;8878;-59
2020/12/25 23:56:12;;;;;;;;;4.00;3.00;19.90;83.00;;;18.59;60.73;101667.13;5073434;28;9587;-60
2020/12/25 23:58:40;;;;;;;;;5.00;2.50;20.20;81.80;;;18.76;60.17;101665.72;5077303;28;8816;-59
